KGXA

Gray Butte Field Airport

Palmdale, California, USA
METAR KGXA 240055Z AUTO VRB05KT 10SM CLR 28/05 A2987 RMK AO2 SLP066 WND DATA ESTMD T02760050 PWINO $
Observed Flight Rules
May-24 @ 00:55 UTC (an hour ago) Visual Flight Rules
Wind Visibility Clouds
Variable at 5 knots 10 miles
  • Clear skies
Temperatures Readings
Current 28°C / 82°F
Dewpoint 5°C / 41°F
Humidity 23%
Altimeter 29.87" Hg
Pressure 1006.6 hPa
Elevation 923
METAR KGXA 240055Z AUTO VRB05KT 10SM CLR 28/05 A2987 RMK AO2 SLP066 WND DATA ESTMD T02760050 PWINO $
Observed Flight Rules
May-24 @ 00:55 UTC
(an hour ago)
VFR
Wind Visibility
Variable at 5 knots 10 miles
Clouds
  • Clear skies
Temperature Dewpoint
28°C / 82°F 5°C / 41°F
Humidity Altimeter Pressure
23% 29.87" Hg 1006.6 hPa